Omskiy-141 — UGZK — position and weather

sailwx.info

Track history (hours):
 
Tides and Currents Weather Stations Pressure Air Temp Water Temp Dewpoint Dewpoint Depression Visibility Wind Speed Wind Dir Waves Ship Positions

Omskiy-141

Last reported at 2017-Nov-20 00:30 UTC. Time now 2017-Nov-21 14:05 UTC.
Position N 55°54' E 012°45'.

Length 108 m; draft 3.4 m.

Type: Cargo ship. MMSI: 273310600.

Date/timePositionNaut miles runAvg speedWind from/ knotsBaromVisibWave heightAir tempDewpointWater temp
2017-Nov-20 00:30N 55°54' E 012°45'4 7.6
2017-Nov-20 00:00N 55°50' E 012°43'4 7.7
2017-Nov-19 23:30N 55°46' E 012°42'4 7.9
2017-Nov-19 23:00N 55°42' E 012°41'4 7.4
2017-Nov-19 22:30N 55°39' E 012°42'3 7.0
2017-Nov-19 22:00N 55°35' E 012°42'4 7.2
2017-Nov-19 21:30N 55°31' E 012°43'4 7.2
2017-Nov-19 21:00N 55°28' E 012°43'4 7.3
2017-Nov-19 20:30N 55°24' E 012°42'4 7.0
2017-Nov-19 20:00N 55°21' E 012°41'3 6.0
2017-Nov-19 19:30N 55°18' E 012°44'3 6.7
2017-Nov-19 19:00N 55°17' E 012°49'3 6.5
2017-Nov-19 18:30N 55°16' E 012°55'3 6.7
2017-Nov-19 18:00N 55°16' E 013°01'3 6.6
2017-Nov-19 17:30N 55°15' E 013°06'4 6.7
2017-Nov-19 16:59N 55°15' E 013°12'23 6.6
2017-Nov-19 13:30N 55°13' E 013°52'3 5.8
2017-Nov-19 13:00N 55°13' E 013°57'4 5.7
2017-Nov-19 12:22N 55°12' E 014°03'3 5.7
2017-Nov-19 11:54N 55°12' E 014°08'2 5.4
2017-Nov-19 11:29N 55°11' E 014°12'3 5.3
2017-Nov-19 10:58N 55°10' E 014°16'3 5.7
2017-Nov-19 10:30N 55°08' E 014°19'3 5.1
2017-Nov-19 10:00N 55°06' E 014°23'3 5.3
2017-Nov-19 09:30N 55°05' E 014°27'3 5.2
2017-Nov-19 09:00N 55°03' E 014°30'3 5.2
2017-Nov-19 08:31N 55°02' E 014°34'2 4.6
2017-Nov-19 08:01N 55°00' E 014°37'2 4.6
2017-Nov-19 07:31N 54°59' E 014°40'2 4.8
2017-Nov-19 07:00N 54°58' E 014°43'2 4.7
2017-Nov-19 06:30N 54°56' E 014°47'2 4.7
2017-Nov-19 06:00N 54°55' E 014°50'2 4.4
2017-Nov-19 05:30N 54°54' E 014°54'2 4.2
2017-Nov-19 05:00N 54°54' E 014°57'2 4.2
2017-Nov-19 04:30N 54°54' E 015°01'2 4.4
2017-Nov-19 04:00N 54°53' E 015°05'2 4.4
2017-Nov-19 03:30N 54°53' E 015°08'103 5.2
2017-Nov-18 07:40N 54°54' E 018°08'1 6.6
2017-Nov-18 07:29N 54°54' E 018°10'3 6.5
2017-Nov-18 07:00N 54°54' E 018°16'3 6.7
2017-Nov-18 06:30N 54°54' E 018°22'3 6.8
2017-Nov-18 06:00N 54°53' E 018°27'3 6.9
2017-Nov-18 05:30N 54°53' E 018°33'4 7.0
2017-Nov-18 05:00N 54°52' E 018°39'4 7.2
2017-Nov-18 04:30N 54°51' E 018°45'4 7.3
2017-Nov-18 04:00N 54°50' E 018°51'4 7.4
2017-Nov-18 03:30N 54°49' E 018°58'4 7.3
2017-Nov-18 03:00N 54°48' E 019°04'4 7.3
2017-Nov-18 02:30N 54°47' E 019°10'4 7.6
2017-Nov-18 02:00N 54°46' E 019°16'4 7.3
2017-Nov-18 01:30N 54°46' E 019°22'3 6.9
2017-Nov-18 01:00N 54°45' E 019°28'4 6.8
2017-Nov-18 00:28N 54°44' E 019°34'  
Track history (hours):
 
Tides and Currents Weather Stations Pressure Air Temp Water Temp Dewpoint Dewpoint Depression Visibility Wind Speed Wind Dir Waves Ship Positions

Omskiy-141

Last reported at 2017-Nov-20 00:30 UTC. Time now 2017-Nov-21 14:05 UTC.
Position N 55°54' E 012°45'.

Length 108 m; draft 3.4 m.

Type: Cargo ship. MMSI: 273310600.

Date/timePositionNaut miles runAvg speedWind from/ knotsBaromVisibWave heightAir tempDewpointWater temp
2017-Nov-20 00:30N 55°54' E 012°45'4 7.6
2017-Nov-20 00:00N 55°50' E 012°43'4 7.7
2017-Nov-19 23:30N 55°46' E 012°42'4 7.9
2017-Nov-19 23:00N 55°42' E 012°41'4 7.4
2017-Nov-19 22:30N 55°39' E 012°42'3 7.0
2017-Nov-19 22:00N 55°35' E 012°42'4 7.2
2017-Nov-19 21:30N 55°31' E 012°43'4 7.2
2017-Nov-19 21:00N 55°28' E 012°43'4 7.3
2017-Nov-19 20:30N 55°24' E 012°42'4 7.0
2017-Nov-19 20:00N 55°21' E 012°41'3 6.0
2017-Nov-19 19:30N 55°18' E 012°44'3 6.7
2017-Nov-19 19:00N 55°17' E 012°49'3 6.5
2017-Nov-19 18:30N 55°16' E 012°55'3 6.7
2017-Nov-19 18:00N 55°16' E 013°01'3 6.6
2017-Nov-19 17:30N 55°15' E 013°06'4 6.7
2017-Nov-19 16:59N 55°15' E 013°12'23 6.6
2017-Nov-19 13:30N 55°13' E 013°52'3 5.8
2017-Nov-19 13:00N 55°13' E 013°57'4 5.7
2017-Nov-19 12:22N 55°12' E 014°03'3 5.7
2017-Nov-19 11:54N 55°12' E 014°08'2 5.4
2017-Nov-19 11:29N 55°11' E 014°12'3 5.3
2017-Nov-19 10:58N 55°10' E 014°16'3 5.7
2017-Nov-19 10:30N 55°08' E 014°19'3 5.1
2017-Nov-19 10:00N 55°06' E 014°23'3 5.3
2017-Nov-19 09:30N 55°05' E 014°27'3 5.2
2017-Nov-19 09:00N 55°03' E 014°30'3 5.2
2017-Nov-19 08:31N 55°02' E 014°34'2 4.6
2017-Nov-19 08:01N 55°00' E 014°37'2 4.6
2017-Nov-19 07:31N 54°59' E 014°40'2 4.8
2017-Nov-19 07:00N 54°58' E 014°43'2 4.7
2017-Nov-19 06:30N 54°56' E 014°47'2 4.7
2017-Nov-19 06:00N 54°55' E 014°50'2 4.4
2017-Nov-19 05:30N 54°54' E 014°54'2 4.2
2017-Nov-19 05:00N 54°54' E 014°57'2 4.2
2017-Nov-19 04:30N 54°54' E 015°01'2 4.4
2017-Nov-19 04:00N 54°53' E 015°05'2 4.4
2017-Nov-19 03:30N 54°53' E 015°08'103 5.2
2017-Nov-18 07:40N 54°54' E 018°08'1 6.6
2017-Nov-18 07:29N 54°54' E 018°10'3 6.5
2017-Nov-18 07:00N 54°54' E 018°16'3 6.7
2017-Nov-18 06:30N 54°54' E 018°22'3 6.8
2017-Nov-18 06:00N 54°53' E 018°27'3 6.9
2017-Nov-18 05:30N 54°53' E 018°33'4 7.0
2017-Nov-18 05:00N 54°52' E 018°39'4 7.2
2017-Nov-18 04:30N 54°51' E 018°45'4 7.3
2017-Nov-18 04:00N 54°50' E 018°51'4 7.4
2017-Nov-18 03:30N 54°49' E 018°58'4 7.3
2017-Nov-18 03:00N 54°48' E 019°04'4 7.3
2017-Nov-18 02:30N 54°47' E 019°10'4 7.6
2017-Nov-18 02:00N 54°46' E 019°16'4 7.3
2017-Nov-18 01:30N 54°46' E 019°22'3 6.9
2017-Nov-18 01:00N 54°45' E 019°28'4 6.8
2017-Nov-18 00:28N 54°44' E 019°34'  

Dump ship's entire track history